Time;durP1;ratioP1;P1;durP2;ratioP2;P2;SDS_P1;SDS_P2;PMS_P1;PMS_P2;Temp;Humidity;BMP_temperature;BMP_pressure;BME280_temperature;BME280_humidity;BME280_pressure;Samples;Min_cycle;Max_cycle;Signal;HPM_P1;HPM_P2
2022/04/03 00:00:22;;;;;;;2.92;2.13;;;;;;;-0.53;83.84;97453.63;5099123;28;20035;-83
2022/04/03 00:02:49;;;;;;;1.40;1.30;;;;;;;-0.46;84.45;97481.03;5082175;28;20112;-84
2022/04/03 00:05:17;;;;;;;2.40;2.20;;;;;;;-0.51;84.17;97467.31;5064220;28;20052;-83
2022/04/03 00:07:44;;;;;;;2.58;1.83;;;;;;;-0.51;84.62;97478.41;5065615;28;20108;-85
2022/04/03 00:10:10;;;;;;;2.10;1.90;;;;;;;-0.55;84.53;97479.22;5085987;28;20102;-85
2022/04/03 00:12:40;;;;;;;3.30;1.80;;;;;;;-0.56;84.92;97468.94;5076833;28;20083;-85
2022/04/03 00:15:08;;;;;;;1.88;1.77;;;;;;;-0.63;84.76;97461.19;5074053;28;20523;-85
2022/04/03 00:17:36;;;;;;;2.55;1.92;;;;;;;-0.66;85.34;97455.22;5074589;28;20083;-85
2022/04/03 00:20:04;;;;;;;1.90;1.80;;;;;;;-0.75;85.33;97437.16;5073648;28;20481;-84
2022/04/03 00:22:31;;;;;;;2.00;1.80;;;;;;;-0.65;85.22;97452.63;5055524;28;20139;-84
2022/04/03 00:24:58;;;;;;;1.83;1.73;;;;;;;-0.68;85.65;97441.50;5074063;28;20058;-84
2022/04/03 00:27:25;;;;;;;2.15;1.95;;;;;;;-0.80;85.43;97424.28;5074017;28;20475;-87
2022/04/03 00:29:52;;;;;;;2.58;2.38;;;;;;;-0.68;86.00;97450.06;5074130;28;20094;-86
2022/04/03 00:32:19;;;;;;;1.95;1.80;;;;;;;-0.74;86.10;97442.31;5077776;28;20056;-87
2022/04/03 00:34:47;;;;;;;2.17;1.90;;;;;;;-0.75;86.07;97429.47;5073325;28;20052;-86
2022/04/03 00:37:15;;;;;;;2.72;1.83;;;;;;;-0.74;86.02;97424.34;5073752;28;20094;-87
2022/04/03 00:39:42;;;;;;;2.10;1.90;;;;;;;-0.73;86.01;97427.78;5057157;28;20409;-85
2022/04/03 00:42:11;;;;;;;2.75;2.28;;;;;;;-0.68;86.16;97429.53;5056824;28;20079;-86
2022/04/03 00:44:38;;;;;;;1.45;1.35;;;;;;;-0.70;86.38;97432.94;5076126;28;20055;-87
2022/04/03 00:47:05;;;;;;;2.30;2.10;;;;;;;-0.72;86.28;97422.66;5056850;28;20432;-87
2022/04/03 00:49:32;;;;;;;2.92;2.20;;;;;;;-0.76;86.58;97405.53;5080015;28;20052;-85
2022/04/03 00:51:59;;;;;;;2.83;2.30;;;;;;;-0.67;86.37;97423.59;5080311;28;20028;-85
2022/04/03 00:54:26;;;;;;;2.45;2.15;;;;;;;-0.57;86.25;97437.31;5096069;28;20146;-85
2022/04/03 00:56:53;;;;;;;2.33;2.00;;;;;;;-0.55;86.20;97437.34;5084711;28;20055;-85
2022/04/03 00:59:20;;;;;;;3.92;2.13;;;;;;;-0.56;86.61;97433.94;5076138;28;20048;-86
2022/04/03 01:01:47;;;;;;;2.53;2.33;;;;;;;-0.59;86.21;97427.91;5074079;28;20067;-85
2022/04/03 01:04:16;;;;;;;3.47;2.30;;;;;;;-0.59;86.76;97435.59;5073398;28;20063;-85
2022/04/03 01:06:43;;;;;;;2.53;2.20;;;;;;;-0.60;86.80;97421.94;5073270;28;20051;-86
2022/04/03 01:09:10;;;;;;;2.28;2.08;;;;;;;-0.80;86.63;97393.53;5074011;28;20056;-84
2022/04/03 01:11:38;;;;;;;2.65;2.20;;;;;;;-0.72;86.59;97411.56;5072153;28;20056;-85
2022/04/03 01:14:05;;;;;;;2.67;2.33;;;;;;;-0.67;86.63;97426.16;5073583;28;20095;-83
2022/04/03 01:16:34;;;;;;;2.85;2.47;;;;;;;-0.74;86.21;97408.97;5073021;28;20139;-84
2022/04/03 01:19:03;;;;;;;2.70;2.50;;;;;;;-0.76;86.79;97394.44;5073118;28;20056;-83
2022/04/03 01:21:30;;;;;;;3.10;2.50;;;;;;;-0.77;86.36;97388.44;5072908;28;20083;-83
2022/04/03 01:23:57;;;;;;;3.35;2.67;;;;;;;-0.65;86.31;97410.75;5072691;28;20578;-83
2022/04/03 01:26:25;;;;;;;2.97;2.65;;;;;;;-0.70;86.51;97394.47;5072554;28;20052;-83
2022/04/03 01:28:52;;;;;;;3.58;2.60;;;;;;;-0.66;86.34;97404.78;5073352;28;20110;-83
2022/04/03 01:31:20;;;;;;;2.92;2.50;;;;;;;-0.66;86.54;97396.22;5072779;28;20563;-84
2022/04/03 01:33:47;;;;;;;3.15;2.40;;;;;;;-0.60;86.54;97405.66;5072570;28;20049;-83
2022/04/03 01:36:14;;;;;;;2.97;2.60;;;;;;;-0.69;86.58;97383.38;5054869;28;20533;-83
2022/04/03 01:38:41;;;;;;;2.50;2.30;;;;;;;-0.66;86.88;97386.81;5072864;28;20570;-84
2022/04/03 01:41:08;;;;;;;2.65;2.22;;;;;;;-0.54;86.62;97413.41;5054337;28;20057;-83
2022/04/03 01:43:35;;;;;;;2.47;2.28;;;;;;;-0.56;86.29;97402.28;5072542;28;20098;-84
2022/04/03 01:46:02;;;;;;;3.08;2.03;;;;;;;-0.59;86.28;97403.13;5072685;28;20136;-82
2022/04/03 01:48:29;;;;;;;2.92;2.38;;;;;;;-0.63;86.73;97401.38;5076676;28;20056;-85
2022/04/03 01:50:56;;;;;;;2.53;2.33;;;;;;;-0.59;86.55;97402.25;5076334;28;20064;-84
2022/04/03 01:53:25;;;;;;;4.25;1.85;;;;;;;-0.61;86.45;97404.81;5070854;28;20095;-84
2022/04/03 01:56:05;;;;;;;2.23;2.03;;;;;;;-0.76;86.54;97377.34;5056525;28;20069;-85
2022/04/03 01:58:34;;;;;;;2.40;1.98;;;;;;;-0.68;86.12;97395.34;5056705;28;20294;-83
2022/04/03 02:01:04;;;;;;;2.22;2.03;;;;;;;-0.73;86.37;97386.75;5038718;28;20099;-84
2022/04/03 02:03:31;;;;;;;3.35;2.22;;;;;;;-0.69;86.28;97386.81;5056356;28;20076;-84
2022/04/03 02:05:59;;;;;;;2.63;2.10;;;;;;;-0.69;86.55;97388.50;5056748;28;20111;-84
2022/04/03 02:08:25;;;;;;;2.53;2.13;;;;;;;-0.64;86.36;97389.41;5056097;28;20049;-84
2022/04/03 02:10:52;;;;;;;2.40;2.00;;;;;;;-0.71;86.41;97401.31;5056062;28;20059;-84
2022/04/03 02:13:19;;;;;;;2.40;2.20;;;;;;;-0.81;86.33;97367.91;5056181;28;20057;-85
2022/04/03 02:15:46;;;;;;;2.40;2.20;;;;;;;-0.85;86.34;97362.72;5054809;28;20524;-85
2022/04/03 02:18:13;;;;;;;2.17;2.03;;;;;;;-0.73;86.30;97384.19;5055886;28;20132;-84
2022/04/03 02:20:41;;;;;;;2.90;2.40;;;;;;;-0.72;86.48;97376.50;5038053;28;20072;-85
2022/04/03 02:23:08;;;;;;;2.22;2.00;;;;;;;-0.77;86.14;97367.09;5056186;28;20056;-85
2022/04/03 02:25:34;;;;;;;3.30;2.30;;;;;;;-0.70;86.38;97374.81;5038592;28;20425;-87
2022/04/03 02:28:04;;;;;;;2.40;2.08;;;;;;;-0.69;86.40;97384.25;5056841;28;20108;-85
2022/04/03 02:30:31;;;;;;;2.30;2.10;;;;;;;-0.70;86.68;97379.09;5021985;28;20433;-86
2022/04/03 02:32:58;;;;;;;3.28;2.20;;;;;;;-0.71;86.32;97393.63;5056104;28;20068;-87
2022/04/03 02:35:25;;;;;;;3.35;2.53;;;;;;;-0.90;86.17;97364.41;5056420;28;20061;-85
2022/04/03 02:37:53;;;;;;;2.28;2.08;;;;;;;-0.70;86.17;97394.47;5055838;28;20509;-83
2022/04/03 02:40:19;;;;;;;2.88;2.15;;;;;;;-0.73;86.09;97392.75;5055967;28;20052;-82
2022/04/03 02:42:46;;;;;;;2.40;2.20;;;;;;;-0.75;86.25;97385.88;5054908;28;20426;-84
2022/04/03 02:45:15;;;;;;;4.25;3.17;;;;;;;-0.84;85.89;97372.16;5055789;28;20091;-84
2022/04/03 02:47:48;;;;;;;2.47;2.28;;;;;;;-0.73;86.17;97382.50;5055749;28;20053;-85
2022/04/03 02:50:16;;;;;;;2.03;1.83;;;;;;;-0.69;86.26;97393.63;5038071;28;20524;-85
2022/04/03 02:52:44;;;;;;;2.90;2.60;;;;;;;-0.75;86.30;97386.75;5055711;28;20111;-86
2022/04/03 02:55:11;;;;;;;2.35;2.10;;;;;;;-0.85;86.21;97365.31;5037429;28;20048;-83
2022/04/03 02:57:38;;;;;;;2.38;2.17;;;;;;;-0.76;86.05;97387.59;5055842;28;20094;-83
2022/04/03 03:00:06;;;;;;;3.95;2.63;;;;;;;-0.69;86.04;97394.50;5074513;28;20063;-85
2022/04/03 03:02:33;;;;;;;2.55;2.35;;;;;;;-0.71;86.11;97391.06;5075187;28;20048;-84
2022/04/03 03:05:00;;;;;;;3.15;2.20;;;;;;;-0.70;85.79;97389.34;5075029;28;20102;-84
2022/04/03 03:07:39;;;;;;;2.67;2.47;;;;;;;-0.80;85.75;97382.44;5075079;28;20072;-84
2022/04/03 03:10:08;;;;;;;3.83;2.22;;;;;;;-0.68;85.85;97395.34;5074984;28;20521;-84
2022/04/03 03:12:36;;;;;;;;;;;;;;;-0.70;85.89;97390.22;5075938;28;20053;-83
2022/04/03 03:15:04;;;;;;;3.10;2.80;;;;;;;-0.64;86.12;97384.28;5075148;28;19963;-85
2022/04/03 03:17:31;;;;;;;3.03;2.70;;;;;;;-0.65;85.41;97393.66;5074903;28;20102;-83
2022/04/03 03:19:58;;;;;;;2.97;2.38;;;;;;;-0.63;85.73;97391.13;5057416;28;20060;-84
2022/04/03 03:22:25;;;;;;;2.72;2.45;;;;;;;-0.69;85.45;97373.13;5056969;28;20052;-84
2022/04/03 03:24:52;;;;;;;3.28;2.35;;;;;;;-0.76;85.38;97364.50;5074747;28;20053;-84
2022/04/03 03:27:19;;;;;;;2.70;2.50;;;;;;;-0.63;85.45;97383.41;5056910;28;20053;-84
2022/04/03 03:29:46;;;;;;;2.78;2.47;;;;;;;-0.66;85.11;97397.09;5075051;28;20517;-85
2022/04/03 03:32:13;;;;;;;3.20;2.90;;;;;;;-0.67;85.02;97380.00;5058908;28;20064;-85
2022/04/03 03:34:40;;;;;;;2.55;2.20;;;;;;;-0.50;85.14;97387.78;5074304;28;20484;-85
2022/04/03 03:37:08;;;;;;;2.80;2.60;;;;;;;-0.50;84.64;97387.78;5040161;28;20076;-85
2022/04/03 03:39:35;;;;;;;3.17;2.88;;;;;;;-0.50;84.73;97381.81;5056372;28;20509;-85
2022/04/03 03:42:02;;;;;;;3.15;2.80;;;;;;;-0.38;84.10;97392.16;5073780;28;20068;-85
2022/04/03 03:44:29;;;;;;;4.30;3.00;;;;;;;-0.31;83.68;97387.94;5074959;28;20048;-85
2022/04/03 03:46:56;;;;;;;2.85;2.63;;;;;;;-0.40;83.47;97370.78;5074490;28;20055;-85
2022/04/03 03:49:23;;;;;;;4.10;2.90;;;;;;;-0.27;83.72;97389.69;5056644;28;20060;-87
2022/04/03 03:51:50;;;;;;;3.00;2.70;;;;;;;-0.22;83.46;97399.09;5074661;28;20056;-86
2022/04/03 03:54:18;;;;;;;3.00;2.70;;;;;;;-0.20;83.33;97391.44;5064099;28;20432;-85
2022/04/03 03:56:45;;;;;;;3.10;2.80;;;;;;;-0.19;83.39;97385.47;5056561;28;20057;-86
2022/04/03 03:59:12;;;;;;;3.42;2.50;;;;;;;-0.15;83.05;97394.91;5073994;28;20498;-85
2022/04/03 04:01:39;;;;;;;3.70;2.70;;;;;;;-0.19;83.42;97395.72;5067524;28;20438;-84
2022/04/03 04:04:06;;;;;;;3.58;3.13;;;;;;;-0.19;83.53;97389.72;5053834;28;20049;-86
2022/04/03 04:06:33;;;;;;;3.35;2.90;;;;;;;-0.15;83.04;97404.28;5035941;28;20103;-84
2022/04/03 04:09:00;;;;;;;3.03;2.63;;;;;;;0.04;82.58;97420.66;5054411;28;20053;-85
2022/04/03 04:11:27;;;;;;;3.88;2.92;;;;;;;0.07;82.25;97397.59;5053920;28;20478;-86
2022/04/03 04:13:54;;;;;;;2.78;2.58;;;;;;;0.00;82.21;97404.41;5036022;28;20140;-85
2022/04/03 04:16:21;;;;;;;3.42;2.90;;;;;;;0.03;82.93;97426.66;5054191;28;20490;-86
2022/04/03 04:18:48;;;;;;;3.70;3.20;;;;;;;0.10;82.45;97410.44;5037385;28;20063;-86
2022/04/03 04:21:16;;;;;;;3.58;2.95;;;;;;;0.17;82.01;97417.31;5036843;28;20134;-85
2022/04/03 04:23:43;;;;;;;3.55;3.00;;;;;;;0.20;81.63;97422.47;5054425;28;20049;-86
2022/04/03 04:26:13;;;;;;;3.65;3.25;;;;;;;0.15;81.57;97399.34;5055730;28;20049;-84
2022/04/03 04:28:40;;;;;;;3.13;2.83;;;;;;;0.38;81.76;97426.84;5060965;28;20144;-87
2022/04/03 04:31:07;;;;;;;3.38;2.83;;;;;;;0.46;81.02;97432.88;5065273;28;20135;-86
2022/04/03 04:33:35;;;;;;;3.22;2.55;;;;;;;0.50;80.58;97429.47;5066221;28;20059;-87
2022/04/03 04:36:02;;;;;;;3.97;3.20;;;;;;;0.41;80.40;97411.47;5071510;28;20077;-84
2022/04/03 04:38:29;;;;;;;3.88;2.88;;;;;;;0.50;80.81;97428.63;5073320;28;20053;-83
2022/04/03 04:40:56;;;;;;;4.93;3.50;;;;;;;0.56;80.91;97436.31;5071186;28;20065;-85
2022/04/03 06:16:06;;;;;;;2.88;2.67;;;;;;;2.23;69.65;97511.22;5041321;27;1355807;-82
2022/04/03 06:18:34;;;;;;;4.32;2.72;;;;;;;2.17;70.54;97537.00;5070575;28;20075;-83
2022/04/03 06:21:00;;;;;;;4.55;2.67;;;;;;;2.38;70.80;97527.50;5086999;28;20128;-81
2022/04/03 06:23:27;;;;;;;3.08;2.78;;;;;;;2.17;70.27;97477.75;5086735;28;20053;-81
2022/04/03 06:25:56;;;;;;;3.10;2.70;;;;;;;2.39;69.62;97537.84;5086321;28;20052;-81
2022/04/03 06:28:24;;;;;;;4.38;2.97;;;;;;;2.27;69.58;97536.97;5069830;28;20058;-82
2022/04/03 06:30:53;;;;;;;3.03;2.67;;;;;;;2.54;69.78;97552.41;5069742;28;20052;-82
2022/04/03 06:33:20;;;;;;;3.30;2.47;;;;;;;2.71;68.17;97552.38;5086312;28;20582;-79
2022/04/03 06:35:49;;;;;;;2.38;2.17;;;;;;;2.80;68.41;97561.81;5086462;28;20059;-80
2022/04/03 06:38:16;;;;;;;3.15;2.60;;;;;;;2.91;68.52;97566.94;5106604;28;20579;-79
2022/04/03 06:40:52;;;;;;;3.35;2.80;;;;;;;2.60;67.40;97511.16;5115206;28;20608;-78
2022/04/03 06:43:22;;;;;;;4.10;2.88;;;;;;;3.13;66.94;97575.47;5106040;28;20513;-80
2022/04/03 06:45:51;;;;;;;2.55;2.35;;;;;;;2.52;66.36;97536.09;5068867;28;20433;-81
2022/04/03 06:48:19;;;;;;;2.85;2.47;;;;;;;2.20;67.24;97560.16;5066783;28;20088;-82
2022/04/03 06:50:47;;;;;;;3.00;2.65;;;;;;;2.03;67.92;97546.44;5069128;28;20052;-78
2022/04/03 06:53:14;;;;;;;3.38;2.60;;;;;;;1.81;68.25;97530.97;5070654;28;20118;-79
2022/04/03 06:55:41;;;;;;;2.70;2.30;;;;;;;2.33;67.38;97604.81;5051147;28;20061;-79
2022/04/03 06:58:08;;;;;;;2.83;2.50;;;;;;;2.11;66.65;97557.59;5058587;28;20053;-83
2022/04/03 07:00:40;;;;;;;2.88;2.63;;;;;;;2.19;66.27;97583.34;5063881;28;20501;-82
2022/04/03 07:03:07;;;;;;;2.50;2.22;;;;;;;2.27;66.67;97622.00;5049420;28;20144;-79
2022/04/03 07:05:42;;;;;;;3.65;2.20;;;;;;;2.23;66.25;97615.97;5053694;28;20060;-81
2022/04/03 07:08:09;;;;;;;2.67;2.47;;;;;;;2.08;65.78;97585.06;5071284;28;20059;-80
2022/04/03 07:10:36;;;;;;;3.78;3.13;;;;;;;2.46;65.72;97614.25;5072346;28;20044;-78
2022/04/03 07:13:10;;;;;;;2.50;2.30;;;;;;;2.37;64.79;97585.09;5070771;28;20506;-80
2022/04/03 07:15:37;;;;;;;3.95;2.78;;;;;;;2.40;65.62;97619.41;5060002;28;20060;-80
2022/04/03 07:18:05;;;;;;;2.88;2.67;;;;;;;2.41;64.63;97597.97;5038277;28;20048;-80
2022/04/03 07:20:33;;;;;;;3.15;2.83;;;;;;;2.53;64.82;97627.16;5056820;28;20049;-81
2022/04/03 07:23:00;;;;;;;2.60;2.40;;;;;;;2.48;64.72;97621.16;5057034;28;20123;-79
2022/04/03 07:25:28;;;;;;;5.57;3.45;;;;;;;2.49;65.35;97643.47;5054671;28;20067;-81
2022/04/03 07:27:59;;;;;;;4.72;3.28;;;;;;;2.31;65.94;97646.91;5057239;28;20107;-78
2022/04/03 07:30:26;;;;;;;3.25;2.58;;;;;;;1.98;66.57;97640.81;5055250;28;20053;-80
2022/04/03 07:32:54;;;;;;;4.28;2.85;;;;;;;1.83;66.27;97614.22;5054627;28;20108;-79
2022/04/03 07:35:25;;;;;;;4.15;3.08;;;;;;;1.75;66.51;97628.78;5054570;28;20049;-80
2022/04/03 07:37:52;;;;;;;6.15;4.47;;;;;;;1.88;66.25;97621.09;5054577;28;20056;-79
2022/04/03 07:40:19;;;;;;;8.48;5.10;;;;;;;1.86;66.16;97573.88;5052999;28;20098;-79
2022/04/03 07:43:07;;;;;;;4.55;3.50;;;;;;;2.36;64.91;97679.53;5023270;28;20049;-79
2022/04/03 07:45:35;;;;;;;3.42;2.88;;;;;;;1.60;65.54;97551.53;5072829;28;20558;-79
2022/04/03 07:48:03;;;;;;;6.78;3.92;;;;;;;2.46;65.30;97664.94;5039806;28;20122;-78
2022/04/03 07:50:31;;;;;;;4.18;2.72;;;;;;;2.38;65.28;97674.38;5074764;28;20056;-81
2022/04/03 07:52:59;;;;;;;2.83;2.50;;;;;;;2.22;65.46;97694.97;5074291;28;20517;-77
2022/04/03 07:55:26;;;;;;;4.70;3.25;;;;;;;1.98;66.03;97658.84;5056542;28;20432;-81
2022/04/03 07:57:53;;;;;;;4.80;3.17;;;;;;;1.84;66.10;97661.41;5075288;28;20501;-79
2022/04/03 08:00:20;;;;;;;7.18;3.60;;;;;;;1.98;65.08;97641.72;5056777;28;20056;-79
2022/04/03 08:02:48;;;;;;;4.60;2.92;;;;;;;1.99;64.66;97665.75;5039717;28;20052;-79
2022/04/03 08:05:15;;;;;;;7.05;3.85;;;;;;;1.37;65.31;97578.03;5056909;28;20429;-80
2022/04/03 08:07:48;;;;;;;3.47;2.63;;;;;;;1.79;65.58;97663.13;5075568;28;20048;-80
2022/04/03 08:10:18;;;;;;;6.05;3.35;;;;;;;1.08;65.88;97583.09;5074395;28;20072;-81
2022/04/03 08:12:47;;;;;;;5.25;3.75;;;;;;;2.12;65.94;97697.53;5057666;28;20067;-79
2022/04/03 08:15:16;;;;;;;3.43;2.93;;;;;;;2.29;65.38;97736.22;5074191;28;20449;-80
2022/04/03 08:17:45;;;;;;;3.95;3.30;;;;;;;2.11;65.61;97724.13;5057105;28;20139;-80
2022/04/03 08:20:18;;;;;;;3.38;3.03;;;;;;;2.12;66.05;97733.59;5056580;28;20068;-81
2022/04/03 08:22:47;;;;;;;3.90;3.50;;;;;;;1.93;65.36;97715.50;5056954;28;20102;-80
2022/04/03 08:25:15;;;;;;;3.65;3.00;;;;;;;1.78;65.11;97733.47;5074116;28;20055;-81
2022/04/03 08:27:44;;;;;;;5.38;3.17;;;;;;;1.39;65.47;97698.97;5056421;28;20193;-80
2022/04/03 08:30:14;;;;;;;6.13;3.63;;;;;;;1.43;65.78;97742.72;5073458;28;20475;-79
2022/04/03 08:32:42;;;;;;;7.10;4.65;;;;;;;1.50;66.08;97742.75;5074595;28;20535;-81
2022/04/03 08:35:31;;;;;;;4.57;3.50;;;;;;;1.59;66.18;97743.69;5079508;28;20083;-79
2022/04/03 08:38:04;;;;;;;4.65;3.67;;;;;;;1.34;65.72;97683.50;5075093;28;20057;-81
2022/04/03 08:40:33;;;;;;;4.13;3.53;;;;;;;1.63;65.21;97763.44;5074813;28;20064;-81
2022/04/03 08:43:02;;;;;;;3.83;3.00;;;;;;;1.33;65.22;97697.22;5075531;28;20110;-82
2022/04/03 08:45:30;;;;;;;5.40;3.33;;;;;;;1.82;65.67;97756.66;5058435;28;20048;-81
2022/04/03 08:47:59;;;;;;;6.35;3.15;;;;;;;1.79;64.79;97784.13;5071334;28;20056;-83
2022/04/03 08:50:35;;;;;;;3.10;2.80;;;;;;;1.30;64.81;97704.94;5060746;28;20049;-81
2022/04/03 08:53:07;;;;;;;3.80;2.70;;;;;;;1.02;64.89;97679.03;5042199;28;20044;-81
2022/04/03 08:55:35;;;;;;;5.80;3.22;;;;;;;0.75;64.20;97690.00;5043193;28;20049;-82
2022/04/03 08:58:05;;;;;;;5.22;3.15;;;;;;;0.60;64.99;97667.63;5059478;28;20060;-81
2022/04/03 09:00:35;;;;;;;3.63;3.25;;;;;;;1.54;64.76;97806.25;5071557;28;20083;-81
2022/04/03 09:03:03;;;;;;;5.63;3.38;;;;;;;1.55;64.28;97771.94;5041833;28;20434;-80
2022/04/03 09:05:38;;;;;;;3.83;3.00;;;;;;;1.63;64.21;97790.88;5056588;28;20053;-81
2022/04/03 09:08:07;;;;;;;6.63;3.42;;;;;;;1.70;64.45;97789.19;5021727;28;20099;-82
2022/04/03 09:10:41;;;;;;;4.70;3.22;;;;;;;2.00;63.45;97791.06;5070508;28;20063;-83
2022/04/03 09:13:25;;;;;;;6.35;3.17;;;;;;;1.97;63.17;97776.47;5037277;28;20055;-79
2022/04/03 09:15:52;;;;;;;4.03;3.10;;;;;;;1.78;63.04;97798.69;5035527;28;20081;-81
2022/04/03 09:18:26;;;;;;;8.57;3.53;;;;;;;1.72;63.24;97813.22;5038413;28;20072;-81
2022/04/03 09:20:53;;;;;;;6.25;3.45;;;;;;;1.89;63.03;97823.63;5043415;28;20084;-81
2022/04/03 09:23:20;;;;;;;7.63;4.15;;;;;;;2.06;62.48;97834.88;5042638;28;20113;-83
2022/04/03 09:26:43;;;;;;;4.47;3.22;;;;;;;2.20;61.92;97815.19;5043523;28;20053;-83
2022/04/03 09:30:07;;;;;;;5.50;4.07;;;;;;;1.69;61.81;97770.31;5011194;28;20056;-83
2022/04/03 09:32:35;;;;;;;6.90;3.55;;;;;;;1.99;62.24;97826.25;5036477;28;20049;-82
2022/04/03 09:35:02;;;;;;;5.47;3.97;;;;;;;1.87;62.26;97759.25;5034497;28;20065;-83
2022/04/03 09:37:32;;;;;;;6.13;3.45;;;;;;;2.59;60.87;97823.06;5015572;28;20058;-82
2022/04/03 09:39:59;;;;;;;4.85;3.60;;;;;;;2.48;60.48;97819.59;5032156;28;20060;-82
2022/04/03 09:42:28;;;;;;;4.82;3.25;;;;;;;2.72;59.99;97839.41;5033523;28;20052;-81
2022/04/03 09:45:03;;;;;;;4.80;3.78;;;;;;;2.75;59.23;97853.16;5034638;28;20063;-79
2022/04/03 09:47:32;;;;;;;4.32;3.00;;;;;;;2.63;59.21;97855.72;5036038;28;20056;-81
2022/04/03 09:50:04;;;;;;;4.72;3.90;;;;;;;3.12;58.97;97865.25;5033302;28;20045;-82
2022/04/03 09:52:33;;;;;;;3.70;3.40;;;;;;;3.66;57.17;97860.97;5037606;28;20081;-80
2022/04/03 09:55:00;;;;;;;4.00;3.60;;;;;;;3.84;57.55;97881.59;5047926;28;20052;-83
2022/04/03 09:57:29;;;;;;;5.43;3.30;;;;;;;3.49;57.15;97868.72;5051790;28;20045;-82
2022/04/03 09:59:57;;;;;;;5.75;3.60;;;;;;;3.46;58.03;97879.03;5053777;28;20472;-86
2022/04/03 10:02:24;;;;;;;5.40;3.85;;;;;;;3.37;58.69;97879.91;5049950;28;20053;-81
2022/04/03 10:04:52;;;;;;;5.18;3.60;;;;;;;2.60;58.72;97739.69;5085717;28;20505;-82
2022/04/03 10:07:20;;;;;;;4.80;3.90;;;;;;;3.52;58.51;97880.78;5054305;28;20059;-85
2022/04/03 10:09:56;;;;;;;5.82;3.70;;;;;;;3.41;58.03;97884.22;5053465;28;20096;-83
2022/04/03 10:13:15;;;;;;;7.57;4.40;;;;;;;3.31;58.24;97877.31;5052507;28;20496;-82
2022/04/03 10:16:08;;;;;;;6.13;3.70;;;;;;;3.81;56.66;97878.19;5035614;28;20445;-83
2022/04/03 10:18:37;;;;;;;6.13;4.00;;;;;;;3.55;57.04;97914.31;5051906;28;20414;-83
2022/04/03 10:21:08;;;;;;;5.22;3.78;;;;;;;3.29;57.45;97879.03;5070096;28;20053;-83
2022/04/03 10:23:42;;;;;;;5.53;3.70;;;;;;;2.98;57.25;97819.69;5056084;28;20060;-83
2022/04/03 10:26:12;;;;;;;5.00;3.58;;;;;;;3.62;56.21;97890.25;5057469;28;20053;-82
2022/04/03 10:28:44;;;;;;;7.03;4.10;;;;;;;3.74;56.33;97882.47;5054190;28;20048;-86
2022/04/03 10:31:16;;;;;;;7.28;3.92;;;;;;;3.90;55.88;97894.50;5052669;28;20063;-80
2022/04/03 10:33:49;;;;;;;6.22;4.00;;;;;;;3.88;55.87;97888.50;5053458;28;20510;-82
2022/04/03 10:36:52;;;;;;;5.43;4.00;;;;;;;3.89;55.91;97894.50;5056623;28;20059;-82
2022/04/03 10:39:52;;;;;;;7.75;4.40;;;;;;;3.85;56.70;97890.19;5033157;28;20052;-80
2022/04/03 10:42:50;;;;;;;6.82;4.20;;;;;;;4.18;56.69;97891.88;5042784;28;20055;-80
2022/04/03 10:45:51;;;;;;;7.43;4.13;;;;;;;4.38;54.93;97906.47;5039875;28;20045;-79
2022/04/03 10:48:42;;;;;;;5.22;3.70;;;;;;;4.18;55.02;97904.81;5035215;28;20083;-82
2022/04/03 10:51:22;;;;;;;4.00;3.60;;;;;;;4.04;55.73;97906.53;5003526;28;20168;-81
2022/04/03 10:53:54;;;;;;;6.07;4.07;;;;;;;3.56;54.93;97812.78;5035524;28;20050;-81
2022/04/03 10:56:26;;;;;;;4.72;4.18;;;;;;;4.28;54.83;97890.13;5019399;28;20053;-82
2022/04/03 10:58:56;;;;;;;5.75;4.00;;;;;;;4.29;54.48;97879.78;5036547;28;20053;-84
2022/04/03 11:01:31;;;;;;;8.63;4.40;;;;;;;4.42;54.36;97919.38;5018286;28;20107;-82
2022/04/03 11:04:13;;;;;;;4.40;3.90;;;;;;;4.31;53.52;97870.28;5036028;28;20061;-82
2022/04/03 11:06:45;;;;;;;5.53;4.18;;;;;;;4.79;53.82;97908.88;5024521;28;20103;-81
2022/04/03 11:09:25;;;;;;;5.20;3.90;;;;;;;5.05;53.07;97892.38;5035443;28;20195;-80
2022/04/03 11:11:54;;;;;;;6.45;3.88;;;;;;;4.89;52.61;97848.47;5040271;28;20505;-80
2022/04/03 11:14:56;;;;;;;4.97;3.90;;;;;;;5.41;52.58;97921.47;5040109;28;20076;-80
2022/04/03 11:17:53;;;;;;;5.22;3.72;;;;;;;5.20;52.51;97925.06;5034077;28;20502;-82
2022/04/03 11:20:33;;;;;;;6.50;3.65;;;;;;;5.17;51.53;97930.28;4998498;28;20065;-80
2022/04/03 11:23:03;;;;;;;5.45;3.00;;;;;;;4.96;51.93;97931.25;5035922;28;20068;-86
2022/04/03 11:25:30;;;;;;;6.73;3.80;;;;;;;4.93;51.99;97945.06;5034287;28;20076;-81
2022/04/03 11:27:58;;;;;;;7.30;4.45;;;;;;;5.10;52.06;97930.31;5035181;28;20049;-79
2022/04/03 11:30:25;;;;;;;5.18;3.65;;;;;;;5.69;51.99;97938.53;5035019;28;20057;-79
2022/04/03 11:32:52;;;;;;;5.25;4.05;;;;;;;6.06;50.60;97955.53;5035305;28;20045;-81
2022/04/03 11:35:33;;;;;;;7.32;3.78;;;;;;;5.88;50.26;97970.34;5036891;28;20049;-82
2022/04/03 11:38:01;;;;;;;6.30;3.13;;;;;;;5.95;50.81;97959.06;5035451;28;20586;-83
2022/04/03 11:40:28;;;;;;;6.53;3.80;;;;;;;6.23;50.07;97973.53;5034021;28;20139;-82
2022/04/03 11:43:16;;;;;;;5.32;4.03;;;;;;;5.88;49.78;97915.91;5035463;28;20057;-82
2022/04/03 11:45:54;;;;;;;4.60;3.42;;;;;;;6.01;50.43;97958.16;5031996;28;20059;-83
2022/04/03 11:48:23;;;;;;;4.00;3.30;;;;;;;6.06;50.19;97971.09;5034678;28;20053;-83
2022/04/03 11:51:05;;;;;;;5.40;3.72;;;;;;;5.83;50.27;97973.81;5015181;28;20059;-83
2022/04/03 11:53:32;;;;;;;4.95;3.28;;;;;;;5.39;50.47;97981.03;5013798;28;20061;-82
2022/04/03 11:56:07;;;;;;;5.95;3.58;;;;;;;5.36;51.29;97978.47;5013443;28;20057;-82
2022/04/03 11:58:37;;;;;;;5.35;4.00;;;;;;;5.53;50.84;97960.25;5014916;28;20065;-82
2022/04/03 12:01:07;;;;;;;5.43;3.67;;;;;;;5.42;50.96;97955.16;5014589;28;20058;-83
2022/04/03 12:03:36;;;;;;;6.38;3.70;;;;;;;5.42;50.90;97987.91;5014755;28;20058;-81
2022/04/03 12:06:17;;;;;;;5.03;3.80;;;;;;;5.27;51.91;98002.69;5019730;28;20081;-82
2022/04/03 12:08:49;;;;;;;6.28;4.05;;;;;;;5.22;51.92;97986.31;5033155;28;20444;-82
2022/04/03 12:11:25;;;;;;;5.20;3.70;;;;;;;5.23;52.20;98000.13;4999924;28;20081;-82
2022/04/03 12:14:03;;;;;;;4.72;3.65;;;;;;;5.40;52.18;97977.59;5015941;28;20135;-81
2022/04/03 12:16:34;;;;;;;5.30;3.70;;;;;;;5.44;51.72;97994.84;5063258;28;20063;-80
2022/04/03 12:19:03;;;;;;;6.95;4.70;;;;;;;5.84;51.75;97994.56;5073346;28;20065;-82
2022/04/03 12:21:49;;;;;;;5.60;3.50;;;;;;;5.87;51.78;97989.38;5070274;28;20044;-83
2022/04/03 12:24:23;;;;;;;4.55;3.20;;;;;;;5.81;51.27;98002.34;5070438;28;20056;-81
2022/04/03 12:26:59;;;;;;;7.82;4.40;;;;;;;5.42;51.67;97944.78;5042962;28;20048;-81
2022/04/03 12:29:35;;;;;;;5.85;4.15;;;;;;;5.70;52.05;98004.16;5057193;28;20110;-83
2022/04/03 12:32:15;;;;;;;4.63;3.55;;;;;;;5.81;51.72;97998.88;5058946;28;20056;-82
2022/04/03 12:34:47;;;;;;;7.53;4.38;;;;;;;5.74;52.40;97995.47;5076054;28;20048;-83
2022/04/03 12:37:16;;;;;;;6.07;4.10;;;;;;;5.33;51.96;97957.75;5075134;28;20060;-82
2022/04/03 12:39:52;;;;;;;5.47;3.80;;;;;;;5.23;52.73;97959.56;5074238;28;20147;-83
2022/04/03 12:42:37;;;;;;;5.53;3.15;;;;;;;5.21;53.28;97965.63;5041421;28;20078;-83
2022/04/03 12:45:25;;;;;;;4.22;3.50;;;;;;;5.41;52.88;98018.13;5076258;28;20094;-83
2022/04/03 12:47:55;;;;;;;4.95;3.45;;;;;;;5.47;53.00;98012.09;5059106;28;20119;-85
2022/04/03 12:50:40;;;;;;;6.85;4.88;;;;;;;5.16;53.06;97950.09;5078902;28;20056;-80
2022/04/03 12:53:16;;;;;;;7.78;5.97;;;;;;;4.85;52.58;97861.44;5065695;28;20048;-83
2022/04/03 12:55:53;;;;;;;9.07;6.35;;;;;;;5.30;51.88;97917.22;5051538;28;20147;-81
2022/04/03 12:58:27;;;;;;;10.88;6.40;;;;;;;5.68;51.84;97948.91;5055664;28;20048;-82
2022/04/03 13:01:14;;;;;;;7.97;5.47;;;;;;;6.48;52.06;98002.69;5069686;28;20099;-84
2022/04/03 13:03:51;;;;;;;8.43;4.57;;;;;;;6.74;50.51;98007.59;5039116;28;20056;-81
2022/04/03 13:06:22;;;;;;;5.57;3.53;;;;;;;6.72;50.57;98015.41;5053759;28;20049;-83
2022/04/03 13:09:03;;;;;;;8.10;3.58;;;;;;;6.09;50.66;97908.88;5057041;28;20145;-83
2022/04/03 13:11:39;;;;;;;5.82;3.30;;;;;;;6.58;50.11;98017.25;5053726;28;20080;-79
2022/04/03 13:14:19;;;;;;;5.68;3.13;;;;;;;6.25;50.49;97995.13;5017638;28;20091;-83
2022/04/03 13:16:51;;;;;;;5.03;2.92;;;;;;;6.36;50.04;98007.09;5052904;28;20084;-81
2022/04/03 13:19:21;;;;;;;5.47;3.10;;;;;;;6.28;50.46;98014.13;5053452;28;20083;-83
2022/04/03 13:21:49;;;;;;;6.20;3.50;;;;;;;6.09;51.57;98004.78;5069649;28;20143;-82
2022/04/03 13:24:19;;;;;;;3.80;3.15;;;;;;;6.08;51.46;97995.25;5036369;28;20053;-81
2022/04/03 13:26:51;;;;;;;3.53;2.90;;;;;;;5.94;51.03;98003.13;5055046;28;20091;-82
2022/04/03 13:29:27;;;;;;;5.03;2.83;;;;;;;5.83;51.36;98026.53;5035293;28;20049;-82